Time,TemperatureF,DewpointF,PressureIn,WindDirection,WindDirectionDegrees,WindSpeedMPH,WindSpeedGustMPH,Humidity,HourlyPrecipIn,Conditions,Clouds,dailyrainin,SoftwareType,DateUTC
2013-03-03 00:01:00,23.5,6.8,30.12,ESE,105,3.6,4.0,48,0.00,,---,0.00,VWS V14.01,2013-03-03 06:01:00,
2013-03-03 00:07:00,23.4,6.6,30.12,ESE,105,3.6,4.0,48,0.00,,---,0.00,VWS V14.01,2013-03-03 06:07:00,
2013-03-03 00:12:00,23.4,6.6,30.12,ESE,105,2.7,5.4,48,0.00,,---,0.00,VWS V14.01,2013-03-03 06:12:00,
2013-03-03 00:17:00,23.4,6.1,30.12,ESE,106,3.1,4.0,47,0.00,,---,0.00,VWS V14.01,2013-03-03 06:17:00,
2013-03-03 00:22:00,23.2,5.9,30.12,ESE,110,4.0,4.0,47,0.00,,---,0.00,VWS V14.01,2013-03-03 06:22:00,
2013-03-03 00:28:00,23.2,5.5,30.12,ESE,111,2.2,3.1,46,0.00,,---,0.00,VWS V14.01,2013-03-03 06:28:00,
2013-03-03 00:34:00,23.2,5.5,30.09,ESE,111,2.7,3.6,46,0.00,,---,0.00,VWS V14.01,2013-03-03 06:34:00,
2013-03-03 00:39:00,23.2,5.5,30.09,ESE,111,3.6,4.0,46,0.00,,---,0.00,VWS V14.01,2013-03-03 06:39:00,
2013-03-03 00:45:00,23.2,5.9,30.09,ESE,110,3.1,3.6,47,0.00,,---,0.00,VWS V14.01,2013-03-03 06:45:00,
2013-03-03 00:50:00,23.2,5.9,30.09,ESE,111,3.6,4.0,47,0.00,,---,0.00,VWS V14.01,2013-03-03 06:50:00,
2013-03-03 00:56:00,23.2,5.9,30.09,ESE,111,4.0,4.0,47,0.00,,---,0.00,VWS V14.01,2013-03-03 06:56:00,
2013-03-03 01:02:00,23.0,6.2,30.09,ESE,111,3.1,3.1,48,0.00,,---,0.00,VWS V14.01,2013-03-03 07:02:00,
2013-03-03 01:07:00,23.0,6.2,30.09,ESE,111,3.6,3.6,48,0.00,,---,0.00,VWS V14.01,2013-03-03 07:07:00,
2013-03-03 01:13:00,23.0,6.2,30.09,ESE,111,3.1,3.1,48,0.00,,---,0.00,VWS V14.01,2013-03-03 07:13:00,
2013-03-03 01:18:00,23.0,6.2,30.09,ESE,111,3.6,4.0,48,0.00,,---,0.00,VWS V14.01,2013-03-03 07:18:00,
2013-03-03 01:23:00,23.2,6.4,30.09,ESE,111,4.0,4.9,48,0.00,,---,0.00,VWS V14.01,2013-03-03 07:23:00,
2013-03-03 01:28:00,23.2,6.4,30.09,ESE,111,3.6,5.4,48,0.00,,---,0.00,VWS V14.01,2013-03-03 07:28:00,
2013-03-03 01:33:00,23.0,6.2,30.09,ESE,111,5.4,5.4,48,0.00,,---,0.00,VWS V14.01,2013-03-03 07:33:00,
2013-03-03 01:38:00,23.0,6.2,30.09,ESE,111,3.6,4.0,48,0.00,,---,0.00,VWS V14.01,2013-03-03 07:38:00,
2013-03-03 01:44:00,23.0,6.2,30.09,ESE,111,4.9,4.9,48,0.00,,---,0.00,VWS V14.01,2013-03-03 07:44:00,
2013-03-03 01:49:00,22.8,6.5,30.09,ESE,113,4.9,5.8,49,0.00,,---,0.00,VWS V14.01,2013-03-03 07:49:00,
2013-03-03 01:54:00,22.8,6.5,30.09,ESE,114,3.6,4.9,49,0.00,,---,0.00,VWS V14.01,2013-03-03 07:54:00,
2013-03-03 01:59:00,22.8,6.5,30.09,ESE,115,4.5,5.4,49,0.00,,---,0.00,VWS V14.01,2013-03-03 07:59:00,
2013-03-03 02:04:00,22.6,6.4,30.09,ESE,116,4.9,4.9,49,0.00,,---,0.00,VWS V14.01,2013-03-03 08:04:00,
2013-03-03 02:10:00,22.6,6.4,30.09,ESE,116,3.1,4.0,49,0.00,,---,0.00,VWS V14.01,2013-03-03 08:10:00,
2013-03-03 02:16:00,22.5,6.6,30.09,ESE,116,4.0,4.0,50,0.00,,---,0.00,VWS V14.01,2013-03-03 08:16:00,
2013-03-03 02:21:00,22.5,6.6,30.09,ESE,116,3.6,4.0,50,0.00,,---,0.00,VWS V14.01,2013-03-03 08:21:00,
2013-03-03 02:27:00,22.3,6.5,30.09,ESE,116,3.6,4.0,50,0.00,,---,0.00,VWS V14.01,2013-03-03 08:27:00,
2013-03-03 02:32:00,22.3,6.5,30.09,ESE,116,4.0,4.0,50,0.00,,---,0.00,VWS V14.01,2013-03-03 08:32:00,
2013-03-03 02:37:00,22.1,6.8,30.09,ESE,116,3.6,4.9,51,0.00,,---,0.00,VWS V14.01,2013-03-03 08:37:00,
2013-03-03 02:42:00,22.1,6.8,30.09,ESE,116,3.6,3.6,51,0.00,,---,0.00,VWS V14.01,2013-03-03 08:42:00,
2013-03-03 02:48:00,22.1,6.8,30.09,ESE,116,3.1,4.9,51,0.00,,---,0.00,VWS V14.01,2013-03-03 08:48:00,
2013-03-03 02:53:00,22.1,6.8,30.09,ESE,116,4.5,4.5,51,0.00,,---,0.00,VWS V14.01,2013-03-03 08:53:00,
2013-03-03 02:58:00,21.9,6.6,30.09,ESE,116,3.6,5.4,51,0.00,,---,0.00,VWS V14.01,2013-03-03 08:58:00,
2013-03-03 03:03:00,21.9,6.6,30.09,ESE,116,2.7,4.0,51,0.00,,---,0.00,VWS V14.01,2013-03-03 09:03:00,
2013-03-03 03:09:00,21.9,6.6,30.09,ESE,116,4.0,4.0,51,0.00,,---,0.00,VWS V14.01,2013-03-03 09:09:00,
2013-03-03 03:15:00,21.9,6.6,30.09,ESE,116,4.9,5.4,51,0.00,,---,0.00,VWS V14.01,2013-03-03 09:15:00,
2013-03-03 03:20:00,21.7,6.4,30.09,ESE,117,4.9,5.4,51,0.00,,---,0.00,VWS V14.01,2013-03-03 09:20:00,
2013-03-03 03:26:00,21.7,6.4,30.09,ESE,117,3.1,4.0,51,0.00,,---,0.00,VWS V14.01,2013-03-03 09:26:00,
2013-03-03 03:31:00,21.7,6.4,30.09,ESE,117,3.6,5.4,51,0.00,,---,0.00,VWS V14.01,2013-03-03 09:31:00,
2013-03-03 03:36:00,21.7,6.4,30.06,ESE,117,3.6,4.0,51,0.00,,---,0.00,VWS V14.01,2013-03-03 09:36:00,
2013-03-03 03:41:00,21.7,6.4,30.06,ESE,117,4.0,4.9,51,0.00,,---,0.00,VWS V14.01,2013-03-03 09:41:00,
2013-03-03 03:47:00,21.7,6.4,30.06,ESE,117,3.6,4.5,51,0.00,,---,0.00,VWS V14.01,2013-03-03 09:47:00,
2013-03-03 03:52:00,21.6,6.2,30.06,ESE,117,4.0,5.4,51,0.00,,---,0.00,VWS V14.01,2013-03-03 09:52:00,
2013-03-03 03:58:00,21.6,6.2,30.06,ESE,117,3.6,5.4,51,0.00,,---,0.00,VWS V14.01,2013-03-03 09:58:00,
2013-03-03 04:04:00,21.4,6.1,30.06,ESE,118,4.0,4.0,51,0.00,,---,0.00,VWS V14.01,2013-03-03 10:04:00,
2013-03-03 04:09:00,21.4,6.1,30.06,ESE,117,4.5,5.4,51,0.00,,---,0.00,VWS V14.01,2013-03-03 10:09:00,
2013-03-03 04:14:00,21.2,5.9,30.06,ESE,117,5.4,5.4,51,0.00,,---,0.00,VWS V14.01,2013-03-03 10:14:00,
2013-03-03 04:19:00,21.2,5.9,30.06,ESE,118,5.8,6.3,51,0.00,,---,0.00,VWS V14.01,2013-03-03 10:19:00,
2013-03-03 04:25:00,21.2,5.9,30.06,ESE,122,5.8,7.6,51,0.00,,---,0.00,VWS V14.01,2013-03-03 10:25:00,
2013-03-03 04:30:00,21.0,5.7,30.06,SE,133,5.4,6.3,51,0.00,,---,0.00,VWS V14.01,2013-03-03 10:30:00,
2013-03-03 04:35:00,20.8,5.6,30.06,SE,126,4.5,4.9,51,0.00,,---,0.00,VWS V14.01,2013-03-03 10:35:00,
2013-03-03 04:40:00,20.5,5.2,30.06,ESE,121,5.4,5.8,51,0.00,,---,0.00,VWS V14.01,2013-03-03 10:40:00,
2013-03-03 04:45:00,20.1,4.9,30.06,ESE,123,5.4,5.8,51,0.00,,---,0.00,VWS V14.01,2013-03-03 10:45:00,
2013-03-03 04:51:00,19.8,4.6,30.06,ESE,123,5.8,5.8,51,0.00,,---,0.00,VWS V14.01,2013-03-03 10:51:00,
2013-03-03 04:57:00,19.4,4.2,30.06,ESE,123,4.5,5.8,51,0.00,,---,0.00,VWS V14.01,2013-03-03 10:57:00,
2013-03-03 05:02:00,19.4,4.7,30.06,ESE,123,3.6,4.0,52,0.00,,---,0.00,VWS V14.01,2013-03-03 11:02:00,
2013-03-03 05:08:00,19.4,4.7,30.06,ESE,123,3.6,3.6,52,0.00,,---,0.00,VWS V14.01,2013-03-03 11:08:00,
2013-03-03 05:13:00,19.4,4.7,30.06,ESE,123,3.6,4.0,52,0.00,,---,0.00,VWS V14.01,2013-03-03 11:13:00,
2013-03-03 05:18:00,19.4,4.7,30.06,ESE,123,5.4,5.4,52,0.00,,---,0.00,VWS V14.01,2013-03-03 11:18:00,
2013-03-03 05:23:00,19.6,4.8,30.06,ESE,123,4.9,4.9,52,0.00,,---,0.00,VWS V14.01,2013-03-03 11:23:00,
2013-03-03 05:29:00,19.8,5.8,30.06,ESE,116,5.4,5.4,54,0.00,,---,0.00,VWS V14.01,2013-03-03 11:29:00,
2013-03-03 05:34:00,19.8,5.8,30.06,ESE,111,4.9,5.4,54,0.00,,---,0.00,VWS V14.01,2013-03-03 11:34:00,
2013-03-03 05:40:00,19.4,5.5,30.06,ESE,109,4.0,4.9,54,0.00,,---,0.00,VWS V14.01,2013-03-03 11:40:00,
2013-03-03 05:46:00,19.2,4.5,30.06,ESE,107,5.4,5.4,52,0.00,,---,0.00,VWS V14.01,2013-03-03 11:46:00,
2013-03-03 05:51:00,19.0,4.3,30.06,ESE,104,5.4,5.4,52,0.00,,---,0.00,VWS V14.01,2013-03-03 11:51:00,
2013-03-03 05:57:00,18.7,3.6,30.06,ESE,106,5.4,5.8,51,0.00,,---,0.00,VWS V14.01,2013-03-03 11:57:00,
2013-03-03 06:02:00,18.3,3.2,30.06,ESE,107,4.9,4.9,51,0.00,,---,0.00,VWS V14.01,2013-03-03 12:02:00,
2013-03-03 06:08:00,18.0,2.9,30.06,ESE,107,4.0,5.4,51,0.00,,---,0.00,VWS V14.01,2013-03-03 12:08:00,
2013-03-03 06:14:00,17.6,2.6,30.06,ESE,105,5.4,5.4,51,0.00,,---,0.00,VWS V14.01,2013-03-03 12:14:00,
2013-03-03 06:19:00,17.8,4.4,30.06,ESE,103,2.7,4.9,55,0.00,,---,0.00,VWS V14.01,2013-03-03 12:19:00,
2013-03-03 06:25:00,17.6,3.8,30.06,East,101,5.4,6.3,54,0.00,,---,0.00,VWS V14.01,2013-03-03 12:25:00,
2013-03-03 06:30:00,17.4,3.2,30.06,ESE,103,4.9,5.8,53,0.00,,---,0.00,VWS V14.01,2013-03-03 12:30:00,
2013-03-03 06:35:00,17.2,3.1,30.06,ESE,109,4.0,4.0,53,0.00,,---,0.00,VWS V14.01,2013-03-03 12:35:00,
2013-03-03 06:40:00,17.2,3.1,30.06,ESE,108,2.7,3.1,53,0.00,,---,0.00,VWS V14.01,2013-03-03 12:40:00,
2013-03-03 06:45:00,17.2,3.1,30.06,ESE,109,4.9,6.3,53,0.00,,---,0.00,VWS V14.01,2013-03-03 12:45:00,
2013-03-03 06:50:00,17.4,3.2,30.06,ESE,110,5.4,5.4,53,0.00,,---,0.00,VWS V14.01,2013-03-03 12:50:00,
2013-03-03 06:55:00,17.4,3.2,30.06,ESE,109,5.8,5.8,53,0.00,,---,0.00,VWS V14.01,2013-03-03 12:55:00,
2013-03-03 07:00:00,17.6,3.4,30.06,ESE,118,4.0,6.3,53,0.00,,---,0.00,VWS V14.01,2013-03-03 13:00:00,
2013-03-03 07:05:00,18.0,3.3,30.06,ESE,112,6.3,6.3,52,0.00,,---,0.00,VWS V14.01,2013-03-03 13:05:00,
2013-03-03 07:11:00,18.5,3.8,30.06,ESE,104,5.4,5.8,52,0.00,,---,0.00,VWS V14.01,2013-03-03 13:11:00,
2013-03-03 07:17:00,19.2,4.1,30.06,ESE,113,5.4,5.8,51,0.00,,---,0.00,VWS V14.01,2013-03-03 13:17:00,
2013-03-03 07:22:00,19.6,4.0,30.06,East,101,7.6,8.3,50,0.00,,---,0.00,VWS V14.01,2013-03-03 13:22:00,
2013-03-03 07:28:00,19.9,3.9,30.06,ESE,113,7.6,7.6,49,0.00,,---,0.00,VWS V14.01,2013-03-03 13:28:00,
2013-03-03 07:33:00,20.3,3.8,30.06,ESE,113,8.1,8.1,48,0.00,,---,0.00,VWS V14.01,2013-03-03 13:33:00,
2013-03-03 07:39:00,20.7,4.5,30.06,ESE,119,8.1,8.3,49,0.00,,---,0.00,VWS V14.01,2013-03-03 13:39:00,
2013-03-03 07:45:00,21.0,4.9,30.06,ESE,111,7.6,8.3,49,0.00,,---,0.00,VWS V14.01,2013-03-03 13:45:00,
2013-03-03 07:50:00,21.4,4.8,30.06,ESE,120,8.1,8.1,48,0.00,,---,0.00,VWS V14.01,2013-03-03 13:50:00,
2013-03-03 07:56:00,21.7,5.1,30.06,SE,131,8.1,8.1,48,0.00,,---,0.00,VWS V14.01,2013-03-03 13:56:00,
2013-03-03 08:01:00,22.1,5.0,30.06,SE,129,6.3,6.3,47,0.00,,---,0.00,VWS V14.01,2013-03-03 14:01:00,
2013-03-03 08:07:00,22.6,5.5,30.06,ESE,116,6.3,8.1,47,0.00,,---,0.00,VWS V14.01,2013-03-03 14:07:00,
2013-03-03 08:12:00,22.8,5.2,30.06,ESE,115,7.6,8.3,46,0.00,,---,0.00,VWS V14.01,2013-03-03 14:12:00,
2013-03-03 08:17:00,23.0,4.8,30.06,ESE,119,5.8,10.5,45,0.00,,---,0.00,VWS V14.01,2013-03-03 14:17:00,
2013-03-03 08:23:00,23.5,4.8,30.06,ESE,115,6.3,10.1,44,0.00,,---,0.00,VWS V14.01,2013-03-03 14:23:00,
2013-03-03 08:28:00,23.7,5.5,30.06,ESE,118,4.9,8.3,45,0.00,,---,0.00,VWS V14.01,2013-03-03 14:28:00,
2013-03-03 08:34:00,24.6,5.8,30.06,ESE,120,6.3,6.3,44,0.00,,---,0.00,VWS V14.01,2013-03-03 14:34:00,
2013-03-03 08:39:00,24.8,6.0,30.06,ESE,120,6.3,8.3,44,0.00,,---,0.00,VWS V14.01,2013-03-03 14:39:00,
2013-03-03 08:45:00,24.8,6.0,30.06,ESE,119,5.8,5.8,44,0.00,,---,0.00,VWS V14.01,2013-03-03 14:45:00,
2013-03-03 08:51:00,24.3,5.5,30.06,ESE,115,11.0,11.0,44,0.00,,---,0.00,VWS V14.01,2013-03-03 14:51:00,
2013-03-03 08:56:00,23.7,5.0,30.06,ESE,118,8.3,9.2,44,0.00,,---,0.00,VWS V14.01,2013-03-03 14:56:00,
2013-03-03 09:02:00,23.5,4.8,30.06,ESE,117,10.1,11.0,44,0.00,,---,0.00,VWS V14.01,2013-03-03 15:02:00,
2013-03-03 09:07:00,23.5,4.8,30.06,SE,128,10.1,12.3,44,0.00,,---,0.00,VWS V14.01,2013-03-03 15:07:00,
2013-03-03 09:13:00,23.5,4.8,30.06,ESE,116,10.1,10.5,44,0.00,,---,0.00,VWS V14.01,2013-03-03 15:13:00,
2013-03-03 09:18:00,23.5,4.8,30.06,ESE,112,8.1,11.0,44,0.00,,---,0.00,VWS V14.01,2013-03-03 15:18:00,
2013-03-03 09:24:00,23.7,5.0,30.06,SE,127,6.3,8.1,44,0.00,,---,0.00,VWS V14.01,2013-03-03 15:24:00,
2013-03-03 09:30:00,23.9,5.2,30.06,SE,141,8.1,8.7,44,0.00,,---,0.00,VWS V14.01,2013-03-03 15:30:00,
2013-03-03 09:35:00,24.1,5.3,30.06,SE,137,8.1,8.1,44,0.00,,---,0.00,VWS V14.01,2013-03-03 15:35:00,
2013-03-03 09:40:00,24.3,5.5,30.06,SE,140,8.7,9.2,44,0.00,,---,0.00,VWS V14.01,2013-03-03 15:40:00,
2013-03-03 09:45:00,24.6,5.8,30.06,ESE,119,8.3,10.1,44,0.00,,---,0.00,VWS V14.01,2013-03-03 15:45:00,
2013-03-03 09:51:00,25.0,5.7,30.06,SE,133,13.2,13.2,43,0.00,,---,0.00,VWS V14.01,2013-03-03 15:51:00,
2013-03-03 09:56:00,25.0,5.7,30.06,SE,139,8.7,13.2,43,0.00,,---,0.00,VWS V14.01,2013-03-03 15:56:00,
2013-03-03 10:01:00,25.2,5.8,30.06,SSE,151,8.7,11.0,43,0.00,,---,0.00,VWS V14.01,2013-03-03 16:01:00,
2013-03-03 10:06:00,25.3,6.0,30.03,SE,136,10.5,10.5,43,0.00,,---,0.00,VWS V14.01,2013-03-03 16:06:00,
2013-03-03 10:11:00,25.9,6.5,30.03,SE,142,10.5,10.5,43,0.00,,---,0.00,VWS V14.01,2013-03-03 16:11:00,
2013-03-03 10:17:00,26.6,7.1,30.03,SE,130,11.0,13.2,43,0.00,,---,0.00,VWS V14.01,2013-03-03 16:17:00,
2013-03-03 10:22:00,27.1,7.1,30.03,ESE,122,6.7,11.0,42,0.00,,---,0.00,VWS V14.01,2013-03-03 16:22:00,
2013-03-03 10:27:00,27.9,7.8,30.03,SE,125,14.5,14.5,42,0.00,,---,0.00,VWS V14.01,2013-03-03 16:27:00,
2013-03-03 10:33:00,28.9,8.2,30.03,SE,138,8.3,10.1,41,0.00,,---,0.00,VWS V14.01,2013-03-03 16:33:00,
2013-03-03 10:38:00,29.8,9.0,30.03,SE,135,11.0,11.0,41,0.00,,---,0.00,VWS V14.01,2013-03-03 16:38:00,
2013-03-03 10:44:00,30.6,9.7,30.03,ESE,112,11.9,12.8,41,0.00,,---,0.00,VWS V14.01,2013-03-03 16:44:00,
2013-03-03 10:49:00,30.9,9.4,30.03,SE,135,10.1,10.1,40,0.00,,---,0.00,VWS V14.01,2013-03-03 16:49:00,
2013-03-03 10:54:00,30.9,8.3,30.03,SE,136,11.0,13.6,38,0.00,,---,0.00,VWS V14.01,2013-03-03 16:54:00,
2013-03-03 10:59:00,30.9,8.9,30.03,SE,137,10.1,12.8,39,0.00,,---,0.00,VWS V14.01,2013-03-03 16:59:00,
2013-03-03 11:04:00,30.9,9.4,30.03,SE,127,8.1,10.5,40,0.00,,---,0.00,VWS V14.01,2013-03-03 17:04:00,
2013-03-03 11:09:00,31.1,9.1,30.03,SE,144,8.1,10.1,39,0.00,,---,0.00,VWS V14.01,2013-03-03 17:09:00,
2013-03-03 11:14:00,31.6,9.5,30.03,SE,134,8.1,12.8,39,0.00,,---,0.00,VWS V14.01,2013-03-03 17:14:00,
2013-03-03 11:20:00,31.8,9.7,30.03,ESE,115,12.8,13.2,39,0.00,,---,0.00,VWS V14.01,2013-03-03 17:20:00,
2013-03-03 11:26:00,32.4,10.2,30.03,SE,146,8.3,8.3,39,0.00,,---,0.00,VWS V14.01,2013-03-03 17:26:00,
2013-03-03 11:31:00,32.4,10.2,30.03,SE,130,5.8,8.1,39,0.00,,---,0.00,VWS V14.01,2013-03-03 17:31:00,
2013-03-03 11:36:00,32.5,9.8,30.03,ESE,122,10.5,11.9,38,0.00,,---,0.00,VWS V14.01,2013-03-03 17:36:00,
2013-03-03 11:41:00,32.4,8.4,30.03,ESE,123,10.5,11.0,36,0.00,,---,0.00,VWS V14.01,2013-03-03 17:41:00,
2013-03-03 11:47:00,31.5,8.2,30.03,SE,142,8.7,8.7,37,0.00,,---,0.00,VWS V14.01,2013-03-03 17:47:00,
2013-03-03 11:52:00,31.3,8.6,30.03,SE,134,11.0,11.0,38,0.00,,---,0.00,VWS V14.01,2013-03-03 17:52:00,
2013-03-03 11:57:00,31.5,8.2,30.03,SE,124,5.8,11.0,37,0.00,,---,0.00,VWS V14.01,2013-03-03 17:57:00,
2013-03-03 12:02:00,31.8,8.5,30.03,SE,136,8.3,11.0,37,0.00,,---,0.00,VWS V14.01,2013-03-03 18:02:00,
2013-03-03 12:08:00,32.4,9.6,30.03,SE,130,10.1,10.1,38,0.00,,---,0.00,VWS V14.01,2013-03-03 18:08:00,
2013-03-03 12:13:00,32.7,9.9,30.03,SSE,149,10.5,10.5,38,0.00,,---,0.00,VWS V14.01,2013-03-03 18:13:00,
2013-03-03 12:19:00,32.9,9.5,30.03,SSE,150,10.1,11.0,37,0.00,,---,0.00,VWS V14.01,2013-03-03 18:19:00,
2013-03-03 12:25:00,33.3,10.4,30.03,SE,137,11.0,11.0,38,0.00,,---,0.00,VWS V14.01,2013-03-03 18:25:00,
2013-03-03 12:30:00,34.5,10.9,30.03,SE,142,11.0,11.0,37,0.00,,---,0.00,VWS V14.01,2013-03-03 18:30:00,
2013-03-03 12:36:00,35.1,10.8,30.00,SE,143,8.3,11.0,36,0.00,,---,0.00,VWS V14.01,2013-03-03 18:36:00,
2013-03-03 12:41:00,35.6,11.3,30.00,SE,143,9.6,11.0,36,0.00,,---,0.00,VWS V14.01,2013-03-03 18:41:00,
2013-03-03 12:46:00,36.7,11.6,30.00,ESE,120,10.5,11.0,35,0.00,,---,0.00,VWS V14.01,2013-03-03 18:46:00,
2013-03-03 12:51:00,37.2,12.1,30.00,SE,146,10.1,12.8,35,0.00,,---,0.00,VWS V14.01,2013-03-03 18:51:00,
2013-03-03 12:57:00,37.9,12.7,30.00,SE,137,11.0,12.8,35,0.00,,---,0.00,VWS V14.01,2013-03-03 18:57:00,
2013-03-03 13:02:00,38.1,12.2,30.00,SE,140,10.5,10.5,34,0.00,,---,0.00,VWS V14.01,2013-03-03 19:02:00,
2013-03-03 13:08:00,38.1,12.2,30.00,SE,137,8.1,11.0,34,0.00,,---,0.00,VWS V14.01,2013-03-03 19:08:00,
2013-03-03 13:13:00,37.9,11.4,30.00,SE,130,15.4,15.4,33,0.00,,---,0.00,VWS V14.01,2013-03-03 19:13:00,
2013-03-03 13:19:00,37.9,10.7,29.97,ESE,120,10.1,10.5,32,0.00,,---,0.00,VWS V14.01,2013-03-03 19:19:00,
2013-03-03 13:24:00,37.2,10.8,29.97,SSE,151,13.2,13.2,33,0.00,,---,0.00,VWS V14.01,2013-03-03 19:24:00,
2013-03-03 13:29:00,36.3,10.0,29.97,SE,130,11.9,11.9,33,0.00,,---,0.00,VWS V14.01,2013-03-03 19:29:00,
2013-03-03 13:35:00,35.8,9.5,29.97,SE,145,11.0,13.2,33,0.00,,---,0.00,VWS V14.01,2013-03-03 19:35:00,
2013-03-03 13:40:00,35.6,9.4,29.97,SE,144,9.6,9.6,33,0.00,,---,0.00,VWS V14.01,2013-03-03 19:40:00,
2013-03-03 13:46:00,35.4,9.9,29.97,SE,135,8.3,10.5,34,0.00,,---,0.00,VWS V14.01,2013-03-03 19:46:00,
2013-03-03 13:51:00,35.4,10.5,29.97,SE,140,11.9,11.9,35,0.00,,---,0.00,VWS V14.01,2013-03-03 19:51:00,
2013-03-03 13:57:00,35.4,9.9,29.97,ESE,119,10.5,12.3,34,0.00,,---,0.00,VWS V14.01,2013-03-03 19:57:00,
2013-03-03 14:02:00,35.6,9.4,29.97,SE,140,11.0,12.8,33,0.00,,---,0.00,VWS V14.01,2013-03-03 20:02:00,
2013-03-03 14:07:00,35.6,10.0,29.97,SSE,149,7.6,11.0,34,0.00,,---,0.00,VWS V14.01,2013-03-03 20:07:00,
2013-03-03 14:12:00,35.6,9.4,29.97,SE,137,10.1,14.5,33,0.00,,---,0.00,VWS V14.01,2013-03-03 20:12:00,
2013-03-03 14:18:00,35.4,9.9,29.97,SE,130,10.5,12.8,34,0.00,,---,0.00,VWS V14.01,2013-03-03 20:18:00,
2013-03-03 14:24:00,34.9,9.4,29.97,SSE,149,5.4,8.7,34,0.00,,---,0.00,VWS V14.01,2013-03-03 20:24:00,
2013-03-03 14:29:00,34.5,8.4,29.97,SE,135,10.1,11.4,33,0.00,,---,0.00,VWS V14.01,2013-03-03 20:29:00,
2013-03-03 14:35:00,34.3,8.9,29.97,SE,145,8.7,11.9,34,0.00,,---,0.00,VWS V14.01,2013-03-03 20:35:00,
2013-03-03 14:40:00,34.3,8.9,29.97,SE,130,8.7,8.7,34,0.00,,---,0.00,VWS V14.01,2013-03-03 20:40:00,
2013-03-03 14:46:00,34.5,9.1,29.97,ESE,113,9.6,9.6,34,0.00,,---,0.00,VWS V14.01,2013-03-03 20:46:00,
2013-03-03 14:52:00,34.5,9.1,29.97,ESE,106,10.5,11.0,34,0.00,,---,0.00,VWS V14.01,2013-03-03 20:52:00,
2013-03-03 14:57:00,34.5,9.1,29.97,SE,142,8.7,10.5,34,0.00,,---,0.00,VWS V14.01,2013-03-03 20:57:00,
2013-03-03 15:03:00,34.3,8.2,29.97,SSE,147,8.3,12.3,33,0.00,,---,0.00,VWS V14.01,2013-03-03 21:03:00,
2013-03-03 15:08:00,34.3,8.9,29.97,SE,129,7.6,8.3,34,0.00,,---,0.00,VWS V14.01,2013-03-03 21:08:00,
2013-03-03 15:13:00,34.0,7.9,29.97,SE,136,8.7,12.3,33,0.00,,---,0.00,VWS V14.01,2013-03-03 21:13:00,
2013-03-03 15:18:00,33.6,8.3,29.97,SE,139,11.0,11.0,34,0.00,,---,0.00,VWS V14.01,2013-03-03 21:18:00,
2013-03-03 15:23:00,33.6,8.9,29.97,SSE,162,8.1,8.7,35,0.00,,---,0.00,VWS V14.01,2013-03-03 21:23:00,
2013-03-03 15:28:00,34.0,9.2,29.97,SE,129,10.1,10.1,35,0.00,,---,0.00,VWS V14.01,2013-03-03 21:28:00,
2013-03-03 15:34:00,34.3,8.9,29.97,ESE,117,8.7,10.5,34,0.00,,---,0.00,VWS V14.01,2013-03-03 21:34:00,
2013-03-03 15:39:00,34.3,8.9,29.97,SE,141,8.7,10.5,34,0.00,,---,0.00,VWS V14.01,2013-03-03 21:39:00,
2013-03-03 15:44:00,34.2,8.7,29.97,SE,144,10.1,10.5,34,0.00,,---,0.00,VWS V14.01,2013-03-03 21:44:00,
2013-03-03 15:49:00,34.2,8.7,29.94,SE,124,7.6,8.7,34,0.00,,---,0.00,VWS V14.01,2013-03-03 21:49:00,
2013-03-03 15:55:00,33.8,8.4,29.94,SE,136,8.7,11.0,34,0.00,,---,0.00,VWS V14.01,2013-03-03 21:55:00,
2013-03-03 16:00:00,33.6,8.9,29.94,ESE,121,11.0,11.0,35,0.00,,---,0.00,VWS V14.01,2013-03-03 22:00:00,
2013-03-03 16:06:00,32.9,7.6,29.94,ESE,117,7.6,8.7,34,0.00,,---,0.00,VWS V14.01,2013-03-03 22:06:00,
2013-03-03 16:11:00,32.9,8.3,29.94,SE,134,7.6,8.1,35,0.00,,---,0.00,VWS V14.01,2013-03-03 22:11:00,
2013-03-03 16:17:00,33.1,8.4,29.94,SE,125,6.7,8.7,35,0.00,,---,0.00,VWS V14.01,2013-03-03 22:17:00,
2013-03-03 16:22:00,32.9,8.3,29.94,SE,126,6.3,6.7,35,0.00,,---,0.00,VWS V14.01,2013-03-03 22:22:00,
2013-03-03 16:27:00,32.7,8.1,29.94,ESE,105,3.6,8.1,35,0.00,,---,0.00,VWS V14.01,2013-03-03 22:27:00,
2013-03-03 16:32:00,31.6,7.1,29.94,ESE,112,6.7,8.3,35,0.00,,---,0.00,VWS V14.01,2013-03-03 22:32:00,
2013-03-03 16:37:00,31.5,7.0,29.94,ESE,109,8.1,8.3,35,0.00,,---,0.00,VWS V14.01,2013-03-03 22:37:00,
2013-03-03 16:43:00,30.7,6.3,29.94,East,98,8.7,8.7,35,0.00,,---,0.00,VWS V14.01,2013-03-03 22:43:00,
2013-03-03 16:48:00,30.4,6.0,29.94,ESE,113,12.8,13.6,35,0.00,,---,0.00,VWS V14.01,2013-03-03 22:48:00,
2013-03-03 16:53:00,30.0,5.7,29.94,ESE,120,8.7,12.8,35,0.00,,---,0.00,VWS V14.01,2013-03-03 22:53:00,
2013-03-03 16:59:00,29.8,6.2,29.94,ESE,111,8.7,13.2,36,0.00,,---,0.00,VWS V14.01,2013-03-03 22:59:00,
2013-03-03 17:04:00,29.7,6.0,29.94,ESE,109,8.7,8.7,36,0.00,,---,0.00,VWS V14.01,2013-03-03 23:04:00,
2013-03-03 17:09:00,29.5,5.8,29.94,ESE,113,8.7,8.7,36,0.00,,---,0.00,VWS V14.01,2013-03-03 23:09:00,
2013-03-03 17:14:00,29.5,5.8,29.94,ESE,104,8.7,8.7,36,0.00,,---,0.00,VWS V14.01,2013-03-03 23:14:00,
2013-03-03 17:19:00,29.5,5.8,29.94,ESE,109,8.7,10.1,36,0.00,,---,0.00,VWS V14.01,2013-03-03 23:19:00,
2013-03-03 17:24:00,29.3,6.3,29.94,East,101,3.1,8.7,37,0.00,,---,0.00,VWS V14.01,2013-03-03 23:24:00,
2013-03-03 17:30:00,29.1,6.1,29.94,East,99,5.8,6.7,37,0.00,,---,0.00,VWS V14.01,2013-03-03 23:30:00,
2013-03-03 17:35:00,29.3,6.3,29.94,ESE,108,8.1,11.0,37,0.00,,---,0.00,VWS V14.01,2013-03-03 23:35:00,
2013-03-03 17:41:00,29.1,6.1,29.94,ESE,110,8.3,9.6,37,0.00,,---,0.00,VWS V14.01,2013-03-03 23:41:00,
2013-03-03 17:47:00,28.9,6.5,29.94,ESE,104,6.3,8.1,38,0.00,,---,0.00,VWS V14.01,2013-03-03 23:47:00,
2013-03-03 17:52:00,28.4,6.6,29.94,ESE,108,5.8,10.5,39,0.00,,---,0.00,VWS V14.01,2013-03-03 23:52:00,
2013-03-03 17:58:00,28.2,6.4,29.94,East,94,6.3,10.1,39,0.00,,---,0.00,VWS V14.01,2013-03-03 23:58:00,
2013-03-03 18:03:00,28.0,6.8,29.94,East,86,10.1,10.1,40,0.00,,---,0.00,VWS V14.01,2013-03-04 00:03:00,
2013-03-03 18:09:00,27.9,6.7,29.94,ESE,103,9.6,10.1,40,0.00,,---,0.00,VWS V14.01,2013-03-04 00:09:00,
2013-03-03 18:14:00,27.9,6.7,29.94,ESE,111,11.0,11.0,40,0.00,,---,0.00,VWS V14.01,2013-03-04 00:14:00,
2013-03-03 18:20:00,27.7,6.5,29.97,ESE,102,8.3,8.3,40,0.00,,---,0.00,VWS V14.01,2013-03-04 00:20:00,
2013-03-03 18:25:00,27.7,6.5,29.97,ESE,109,10.5,13.2,40,0.00,,---,0.00,VWS V14.01,2013-03-04 00:25:00,
2013-03-03 18:30:00,27.5,6.4,29.97,ESE,116,11.0,11.0,40,0.00,,---,0.00,VWS V14.01,2013-03-04 00:30:00,
2013-03-03 18:36:00,27.3,6.2,29.97,East,100,9.6,10.1,40,0.00,,---,0.00,VWS V14.01,2013-03-04 00:36:00,
2013-03-03 18:41:00,27.1,6.6,29.97,ESE,102,4.0,10.5,41,0.00,,---,0.00,VWS V14.01,2013-03-04 00:41:00,
2013-03-03 18:47:00,27.1,6.6,29.97,ESE,115,8.3,11.0,41,0.00,,---,0.00,VWS V14.01,2013-03-04 00:47:00,
2013-03-03 18:52:00,27.1,6.0,29.97,East,91,8.1,12.3,40,0.00,,---,0.00,VWS V14.01,2013-03-04 00:52:00,
2013-03-03 18:58:00,27.3,6.2,29.97,East,96,5.8,11.0,40,0.00,,---,0.00,VWS V14.01,2013-03-04 00:58:00,
2013-03-03 19:04:00,27.1,6.0,29.97,ESE,103,10.5,10.5,40,0.00,,---,0.00,VWS V14.01,2013-03-04 01:04:00,
2013-03-03 19:09:00,27.0,5.3,29.97,ESE,112,10.5,11.9,39,0.00,,---,0.00,VWS V14.01,2013-03-04 01:09:00,
2013-03-03 19:15:00,26.8,5.7,29.97,ESE,105,7.6,10.5,40,0.00,,---,0.00,VWS V14.01,2013-03-04 01:15:00,
2013-03-03 19:20:00,26.4,5.4,29.97,East,86,10.5,13.6,40,0.00,,---,0.00,VWS V14.01,2013-03-04 01:20:00,
2013-03-03 19:26:00,26.2,5.2,29.97,East,89,12.3,12.8,40,0.00,,---,0.00,VWS V14.01,2013-03-04 01:26:00,
2013-03-03 19:32:00,26.1,5.1,29.97,East,101,9.6,9.6,40,0.00,,---,0.00,VWS V14.01,2013-03-04 01:32:00,
2013-03-03 19:37:00,26.1,5.1,29.97,East,101,11.0,11.0,40,0.00,,---,0.00,VWS V14.01,2013-03-04 01:37:00,
2013-03-03 19:42:00,25.9,4.3,29.97,ESE,110,8.3,12.8,39,0.00,,---,0.00,VWS V14.01,2013-03-04 01:42:00,
2013-03-03 19:48:00,25.7,4.2,29.97,ESE,114,7.6,10.5,39,0.00,,---,0.00,VWS V14.01,2013-03-04 01:48:00,
2013-03-03 19:53:00,25.3,3.9,29.97,ESE,105,8.3,10.1,39,0.00,,---,0.00,VWS V14.01,2013-03-04 01:53:00,
2013-03-03 19:58:00,25.3,3.9,29.97,ESE,104,8.1,10.5,39,0.00,,---,0.00,VWS V14.01,2013-03-04 01:58:00,
2013-03-03 20:04:00,25.3,3.3,29.97,ESE,108,11.0,11.9,38,0.00,,---,0.00,VWS V14.01,2013-03-04 02:04:00,
2013-03-03 20:09:00,25.2,3.1,29.97,ESE,123,8.3,12.8,38,0.00,,---,0.00,VWS V14.01,2013-03-04 02:09:00,
2013-03-03 20:14:00,25.3,2.7,29.97,East,101,13.6,13.6,37,0.00,,---,0.00,VWS V14.01,2013-03-04 02:14:00,
2013-03-03 20:19:00,25.3,2.7,29.97,ESE,105,8.7,12.3,37,0.00,,---,0.00,VWS V14.01,2013-03-04 02:19:00,
2013-03-03 20:24:00,25.3,2.7,29.97,ESE,102,10.1,10.1,37,0.00,,---,0.00,VWS V14.01,2013-03-04 02:24:00,
2013-03-03 20:29:00,25.3,3.3,29.97,East,95,3.6,8.7,38,0.00,,---,0.00,VWS V14.01,2013-03-04 02:29:00,
2013-03-03 20:34:00,25.3,3.3,29.97,ESE,108,10.1,10.5,38,0.00,,---,0.00,VWS V14.01,2013-03-04 02:34:00,
2013-03-03 20:40:00,25.3,2.7,29.97,ESE,117,14.1,14.1,37,0.00,,---,0.00,VWS V14.01,2013-03-04 02:40:00,
2013-03-03 20:46:00,25.3,3.3,29.97,East,96,7.6,10.1,38,0.00,,---,0.00,VWS V14.01,2013-03-04 02:46:00,
2013-03-03 20:51:00,25.3,3.3,29.97,ESE,102,10.1,13.2,38,0.00,,---,0.00,VWS V14.01,2013-03-04 02:51:00,
2013-03-03 20:57:00,25.3,3.3,29.97,ESE,104,12.3,13.6,38,0.00,,---,0.00,VWS V14.01,2013-03-04 02:57:00,
2013-03-03 21:03:00,25.2,3.1,29.94,East,100,8.7,13.2,38,0.00,,---,0.00,VWS V14.01,2013-03-04 03:03:00,
2013-03-03 21:08:00,25.0,2.4,29.94,ESE,114,11.0,11.0,37,0.00,,---,0.00,VWS V14.01,2013-03-04 03:08:00,
2013-03-03 21:14:00,25.0,2.4,29.94,ESE,119,10.1,14.1,37,0.00,,---,0.00,VWS V14.01,2013-03-04 03:14:00,
2013-03-03 21:19:00,24.8,2.8,29.94,ESE,102,8.3,10.1,38,0.00,,---,0.00,VWS V14.01,2013-03-04 03:19:00,
2013-03-03 21:25:00,24.8,2.8,29.94,SE,125,9.2,13.2,38,0.00,,---,0.00,VWS V14.01,2013-03-04 03:25:00,
2013-03-03 21:31:00,24.6,2.7,29.94,East,100,12.3,13.2,38,0.00,,---,0.00,VWS V14.01,2013-03-04 03:31:00,
2013-03-03 21:36:00,24.6,2.7,29.94,ESE,109,12.8,13.2,38,0.00,,---,0.00,VWS V14.01,2013-03-04 03:36:00,
2013-03-03 21:42:00,24.4,2.5,29.94,ESE,102,8.7,12.3,38,0.00,,---,0.00,VWS V14.01,2013-03-04 03:42:00,
2013-03-03 21:47:00,24.4,2.5,29.94,ESE,109,10.1,10.5,38,0.00,,---,0.00,VWS V14.01,2013-03-04 03:47:00,
2013-03-03 21:52:00,24.4,2.5,29.94,SE,124,14.1,15.0,38,0.00,,---,0.00,VWS V14.01,2013-03-04 03:52:00,
2013-03-03 21:57:00,24.4,1.9,29.94,ESE,102,10.5,12.8,37,0.00,,---,0.00,VWS V14.01,2013-03-04 03:57:00,
2013-03-03 22:03:00,24.4,2.5,29.94,East,98,8.7,10.5,38,0.00,,---,0.00,VWS V14.01,2013-03-04 04:03:00,
2013-03-03 22:08:00,24.4,1.9,29.94,ESE,105,11.0,11.0,37,0.00,,---,0.00,VWS V14.01,2013-03-04 04:08:00,
2013-03-03 22:13:00,24.4,2.5,29.94,ESE,107,10.5,10.5,38,0.00,,---,0.00,VWS V14.01,2013-03-04 04:13:00,
2013-03-03 22:18:00,24.4,1.9,29.94,ESE,116,12.8,13.2,37,0.00,,---,0.00,VWS V14.01,2013-03-04 04:18:00,
2013-03-03 22:24:00,24.4,1.9,29.94,East,93,8.1,12.8,37,0.00,,---,0.00,VWS V14.01,2013-03-04 04:24:00,
2013-03-03 22:29:00,24.6,2.7,29.94,ESE,106,8.7,10.1,38,0.00,,---,0.00,VWS V14.01,2013-03-04 04:29:00,
2013-03-03 22:34:00,24.8,2.8,29.94,ESE,110,12.8,14.1,38,0.00,,---,0.00,VWS V14.01,2013-03-04 04:34:00,
2013-03-03 22:39:00,24.8,2.8,29.94,ESE,111,12.8,12.8,38,0.00,,---,0.00,VWS V14.01,2013-03-04 04:39:00,
2013-03-03 22:45:00,25.0,2.4,29.94,East,101,6.3,10.1,37,0.00,,---,0.00,VWS V14.01,2013-03-04 04:45:00,
2013-03-03 22:50:00,25.0,2.4,29.94,East,93,8.7,12.3,37,0.00,,---,0.00,VWS V14.01,2013-03-04 04:50:00,
2013-03-03 22:56:00,24.8,2.8,29.94,East,101,11.0,11.0,38,0.00,,---,0.00,VWS V14.01,2013-03-04 04:56:00,
2013-03-03 23:00:00,24.8,2.8,29.94,ESE,115,9.2,13.2,38,0.00,,---,0.00,VWS V14.01,2013-03-04 05:00:00,
2013-03-03 23:02:00,24.8,2.8,29.94,East,80,8.1,8.1,38,0.00,,---,0.00,VWS V14.01,2013-03-04 05:02:00,
2013-03-03 23:07:00,25.0,2.4,29.94,East,90,5.4,8.1,37,0.00,,---,0.00,VWS V14.01,2013-03-04 05:07:00,
2013-03-03 23:08:00,25.0,2.4,29.94,ESE,113,8.1,8.1,37,0.00,,---,0.00,VWS V14.01,2013-03-04 05:08:00,
2013-03-03 23:13:00,25.0,2.4,29.94,ESE,108,10.5,10.5,37,0.00,,---,0.00,VWS V14.01,2013-03-04 05:13:00,
2013-03-03 23:15:00,24.8,2.8,29.94,ESE,104,8.3,10.1,38,0.00,,---,0.00,VWS V14.01,2013-03-04 05:15:00,
2013-03-03 23:21:00,25.0,2.4,29.94,East,100,5.8,8.3,37,0.00,,---,0.00,VWS V14.01,2013-03-04 05:21:00,
2013-03-03 23:26:00,25.0,3.0,29.94,ESE,103,6.3,8.1,38,0.00,,---,0.00,VWS V14.01,2013-03-04 05:26:00,
2013-03-03 23:31:00,25.0,3.0,29.94,ESE,107,6.3,10.5,38,0.00,,---,0.00,VWS V14.01,2013-03-04 05:31:00,
2013-03-03 23:36:00,25.0,3.0,29.94,ESE,117,5.4,8.3,38,0.00,,---,0.00,VWS V14.01,2013-03-04 05:36:00,
2013-03-03 23:42:00,25.0,3.0,29.94,ESE,115,11.0,12.8,38,0.00,,---,0.00,VWS V14.01,2013-03-04 05:42:00,
2013-03-03 23:48:00,25.0,3.0,29.97,ESE,105,10.1,12.3,38,0.00,,---,0.00,VWS V14.01,2013-03-04 05:48:00,
2013-03-03 23:53:00,25.2,3.1,29.97,ESE,111,8.7,9.2,38,0.00,,---,0.00,VWS V14.01,2013-03-04 05:53:00,
2013-03-03 23:59:00,25.2,3.1,29.97,ESE,112,6.3,10.5,38,0.00,,---,0.00,VWS V14.01,2013-03-04 05:59:00,